Time;durP1;ratioP1;P1;durP2;ratioP2;P2;SDS_P1;SDS_P2;PMS_P1;PMS_P2;Temp;Humidity;BMP_temperature;BMP_pressure;BME280_temperature;BME280_humidity;BME280_pressure;Samples;Min_cycle;Max_cycle;Signal;HPM_P1;HPM_P2
2022/05/29 00:02:10;;;;;;;;;;;;;;;21.48;68.91;100365.34;7402125;19;1725;-59
2022/05/29 00:04:39;;;;;;;;;;;;;;;21.50;68.86;100363.31;7403000;19;1384;-59
2022/05/29 00:07:08;;;;;;;;;;;;;;;21.45;68.84;100383.47;7401866;19;1381;-59
2022/05/29 00:09:39;;;;;;;;;;;;;;;21.34;69.26;100383.72;7405262;19;1356;-58
2022/05/29 00:12:11;;;;;;;;;;;;;;;21.20;69.45;100374.41;7403474;19;1769;-58
2022/05/29 00:14:41;;;;;;;;;;;;;;;21.31;69.25;100370.59;7403527;19;1403;-58
2022/05/29 00:17:10;;;;;;;;;;;;;;;21.31;68.90;100354.47;7404371;19;1335;-59
2022/05/29 00:19:38;;;;;;;;;;;;;;;21.36;68.63;100362.88;7408152;19;1874;-59
2022/05/29 00:22:07;;;;;;;;;;;;;;;21.41;68.46;100357.88;7419591;19;1511;-60
2022/05/29 00:24:35;;;;;;;;;;;;;;;21.40;68.71;100361.56;7418066;19;1299;-59
2022/05/29 00:27:04;;;;;;;;;;;;;;;21.30;68.85;100342.00;7417584;19;1494;-59
2022/05/29 00:29:35;;;;;;;;;;;;;;;21.35;68.51;100337.00;7417419;19;1394;-59
2022/05/29 00:32:04;;;;;;;;;;;;;;;21.34;68.68;100326.41;7419210;19;1594;-59
2022/05/29 00:34:32;;;;;;;;;;;;;;;21.28;68.71;100322.50;7417882;19;1553;-58
2022/05/29 00:37:01;;;;;;;;;;;;;;;21.21;69.14;100316.94;7419246;19;992;-58
2022/05/29 00:39:31;;;;;;;;;;;;;;;21.15;69.28;100304.16;7415709;19;1866;-58
2022/05/29 00:41:59;;;;;;;;;;;;;;;21.06;69.48;100292.50;7417639;19;1421;-58
2022/05/29 00:44:29;;;;;;;;;;;;;;;20.96;69.51;100307.91;7418397;19;1748;-59
2022/05/29 00:47:01;;;;;;;;;;;;;;;21.01;69.53;100297.53;7418121;19;1347;-59
2022/05/29 00:49:30;;;;;;;;;;;;;;;21.10;69.43;100321.75;7417132;19;1298;-58
2022/05/29 00:52:07;;;;;;;;;;;;;;;21.07;69.36;100349.81;7418339;19;1531;-59
2022/05/29 00:54:42;;;;;;;;;;;;;;;21.04;69.70;100348.25;7417814;19;1342;-59
2022/05/29 00:57:12;;;;;;;;;;;;;;;21.11;69.36;100315.34;7417959;19;1433;-59
2022/05/29 00:59:41;;;;;;;;;;;;;;;21.14;69.37;100315.06;7417017;19;1842;-59
2022/05/29 01:02:12;;;;;;;;;;;;;;;21.24;68.81;100326.53;7414223;19;1560;-58
2022/05/29 01:04:43;;;;;;;;;;;;;;;21.22;68.66;100333.91;7417841;19;1551;-58
2022/05/29 01:07:13;;;;;;;;;;;;;;;21.08;69.28;100332.66;7417490;19;1253;-59
2022/05/29 01:09:43;;;;;;;;;;;;;;;20.93;69.73;100329.72;7416855;19;1395;-59
2022/05/29 01:12:18;;;;;;;;;;;;;;;21.00;69.51;100305.75;7416722;19;1607;-58
2022/05/29 01:14:52;;;;;;;;;;;;;;;21.11;69.12;100291.16;7416897;19;1492;-58
2022/05/29 01:17:27;;;;;;;;;;;;;;;21.13;69.09;100294.53;7415547;19;1599;-59
2022/05/29 01:20:05;;;;;;;;;;;;;;;21.14;69.01;100299.75;7415649;19;1851;-58
2022/05/29 01:22:47;;;;;;;;;;;;;;;21.20;68.93;100292.91;7416246;19;1512;-58
2022/05/29 01:25:28;;;;;;;;;;;;;;;21.18;69.13;100294.91;7415818;19;1771;-58
2022/05/29 01:28:14;;;;;;;;;;;;;;;21.15;68.90;100319.41;7416068;19;1493;-58
2022/05/29 01:30:46;;;;;;;;;;;;;;;21.14;69.38;100336.56;7415268;19;1427;-59
2022/05/29 01:33:18;;;;;;;;;;;;;;;21.09;69.00;100345.13;7408867;19;1679;-58
2022/05/29 01:35:48;;;;;;;;;;;;;;;21.09;69.41;100365.75;7409704;19;1519;-59
2022/05/29 01:38:19;;;;;;;;;;;;;;;21.05;69.34;100378.69;7411044;19;1602;-59
2022/05/29 01:40:50;;;;;;;;;;;;;;;21.04;69.20;100385.91;7410065;19;1857;-58
2022/05/29 01:43:25;;;;;;;;;;;;;;;20.86;69.84;100375.19;7409177;19;1540;-59
2022/05/29 01:45:58;;;;;;;;;;;;;;;20.83;70.30;100382.72;7409512;19;1622;-59
2022/05/29 01:48:30;;;;;;;;;;;;;;;20.81;70.58;100379.34;7409255;19;1736;-59
2022/05/29 01:51:01;;;;;;;;;;;;;;;20.97;69.77;100367.88;7409059;19;1527;-59
2022/05/29 01:53:31;;;;;;;;;;;;;;;20.95;69.89;100392.25;7408968;19;1539;-58
2022/05/29 01:56:03;;;;;;;;;;;;;;;20.96;70.03;100390.38;7409713;19;1564;-58
2022/05/29 01:58:35;;;;;;;;;;;;;;;20.90;69.90;100386.47;7409717;19;1543;-59
2022/05/29 02:01:06;;;;;;;;;;;;;;;20.90;70.27;100382.97;7399495;19;1948;-59
2022/05/29 02:03:37;;;;;;;;;;;;;;;20.89;70.45;100392.88;7407239;19;1516;-58
2022/05/29 02:06:09;;;;;;;;;;;;;;;20.78;70.83;100390.44;7407694;19;1476;-58
2022/05/29 02:08:43;;;;;;;;;;;;;;;20.74;70.60;100386.38;7408532;19;1583;-59
2022/05/29 02:11:14;;;;;;;;;;;;;;;20.51;71.84;100372.53;7408420;19;1527;-58
2022/05/29 02:13:47;;;;;;;;;;;;;;;20.64;71.18;100365.78;7408567;19;1598;-59
2022/05/29 02:16:16;;;;;;;;;;;;;;;20.43;71.76;100371.50;7408463;19;1602;-59
2022/05/29 02:18:49;;;;;;;;;;;;;;;20.40;71.94;100373.63;7407678;19;1669;-58
2022/05/29 02:21:21;;;;;;;;;;;;;;;20.58;71.62;100393.25;7406525;19;1871;-58
2022/05/29 02:23:51;;;;;;;;;;;;;;;20.48;71.70;100370.19;7406058;19;1520;-58
2022/05/29 02:26:22;;;;;;;;;;;;;;;20.72;71.37;100391.06;7407623;19;1524;-58
2022/05/29 02:28:55;;;;;;;;;;;;;;;20.74;70.84;100384.50;7407837;19;1496;-59
2022/05/29 02:31:27;;;;;;;;;;;;;;;20.86;70.42;100388.63;7408617;19;1334;-58
2022/05/29 02:33:59;;;;;;;;;;;;;;;20.88;70.18;100385.78;7407097;19;1515;-58
2022/05/29 02:36:33;;;;;;;;;;;;;;;21.01;69.89;100401.53;7408016;19;1524;-58
2022/05/29 02:39:14;;;;;;;;;;;;;;;21.03;69.53;100411.13;7406256;19;1526;-58
2022/05/29 02:41:49;;;;;;;;;;;;;;;21.06;69.58;100418.84;7406731;19;1858;-58
2022/05/29 02:44:26;;;;;;;;;;;;;;;20.99;70.04;100428.56;7406965;19;1578;-58
2022/05/29 02:47:00;;;;;;;;;;;;;;;21.00;69.95;100416.78;7407103;19;1618;-58
2022/05/29 02:49:33;;;;;;;;;;;;;;;21.01;69.64;100390.78;7406530;19;1220;-58
2022/05/29 02:52:04;;;;;;;;;;;;;;;20.99;69.69;100377.47;7407219;19;1299;-59
2022/05/29 02:54:34;;;;;;;;;;;;;;;20.97;69.83;100357.97;7407528;19;1621;-58
2022/05/29 02:57:02;;;;;;;;;;;;;;;20.96;70.06;100371.56;7407161;19;1674;-58
2022/05/29 02:59:37;;;;;;;;;;;;;;;20.94;70.25;100360.97;7406801;19;1639;-59
2022/05/29 03:02:12;;;;;;;;;;;;;;;20.84;70.65;100365.63;7403736;19;1855;-58
2022/05/29 03:04:44;;;;;;;;;;;;;;;20.96;70.01;100377.78;7406458;19;1267;-59
2022/05/29 03:07:21;;;;;;;;;;;;;;;20.92;70.06;100397.91;7407298;19;1563;-59
2022/05/29 03:09:57;;;;;;;;;;;;;;;20.83;70.55;100393.47;7405441;19;1426;-59
2022/05/29 03:12:31;;;;;;;;;;;;;;;20.70;70.67;100399.25;7406589;19;1531;-59
2022/05/29 03:15:23;;;;;;;;;;;;;;;20.68;71.09;100419.22;7406483;19;1519;-58
2022/05/29 03:17:57;;;;;;;;;;;;;;;20.69;70.93;100418.22;7406914;19;1614;-58
2022/05/29 03:20:31;;;;;;;;;;;;;;;20.69;71.22;100428.97;7405304;19;1850;-59
2022/05/29 03:23:06;;;;;;;;;;;;;;;20.68;71.12;100425.44;7406798;19;1531;-59
2022/05/29 03:25:36;;;;;;;;;;;;;;;20.73;70.87;100416.91;7405272;19;1665;-59
2022/05/29 03:28:07;;;;;;;;;;;;;;;20.85;70.84;100427.28;7405929;19;1757;-59
2022/05/29 03:30:40;;;;;;;;;;;;;;;20.87;70.38;100421.75;7405494;19;1288;-59
2022/05/29 03:33:12;;;;;;;;;;;;;;;20.92;70.11;100421.28;7406586;19;1500;-60
2022/05/29 03:35:47;;;;;;;;;;;;;;;20.92;70.00;100416.72;7405421;19;1878;-59
2022/05/29 03:38:16;;;;;;;;;;;;;;;20.90;70.14;100426.81;7407294;19;1248;-60
2022/05/29 03:40:44;;;;;;;;;;;;;;;20.93;70.20;100418.44;7405149;19;1846;-59
2022/05/29 03:43:12;;;;;;;;;;;;;;;20.92;70.11;100424.78;7404840;19;1454;-58
2022/05/29 03:45:43;;;;;;;;;;;;;;;20.96;69.99;100414.56;7405064;19;1385;-59
2022/05/29 03:48:12;;;;;;;;;;;;;;;21.02;69.68;100420.16;7403744;19;1210;-60
2022/05/29 03:50:40;;;;;;;;;;;;;;;20.98;70.06;100418.78;7403876;19;1328;-58
2022/05/29 03:53:08;;;;;;;;;;;;;;;21.01;69.82;100426.56;7404903;19;1427;-60
2022/05/29 03:55:37;;;;;;;;;;;;;;;21.12;69.38;100429.97;7401898;19;1545;-60
2022/05/29 03:58:05;;;;;;;;;;;;;;;21.06;69.85;100418.84;7404585;19;1319;-60
2022/05/29 04:00:33;;;;;;;;;;;;;;;20.94;70.15;100438.91;7403268;19;1861;-59
2022/05/29 04:03:04;;;;;;;;;;;;;;;20.83;70.77;100431.09;7403179;19;1503;-58
2022/05/29 04:05:33;;;;;;;;;;;;;;;20.87;70.60;100416.38;7402464;19;1446;-59
2022/05/29 04:13:24;;;;;;;;;;;;;;;20.99;70.35;100390.06;7404855;19;1245;-59
2022/05/29 04:15:52;;;;;;;;;;;;;;;20.97;70.43;100378.63;7403368;19;1564;-59
2022/05/29 04:18:24;;;;;;;;;;;;;;;20.99;70.33;100401.69;7403345;19;1423;-59
2022/05/29 04:20:53;;;;;;;;;;;;;;;21.13;70.05;100426.28;7403007;19;1859;-59
2022/05/29 04:23:21;;;;;;;;;;;;;;;21.13;70.27;100435.22;7404137;19;1385;-59
2022/05/29 04:25:50;;;;;;;;;;;;;;;21.16;70.14;100436.72;7404564;19;1325;-59
2022/05/29 04:28:18;;;;;;;;;;;;;;;21.16;70.25;100442.09;7403202;19;1379;-60
2022/05/29 04:30:47;;;;;;;;;;;;;;;21.09;70.47;100454.47;7403098;19;1426;-61
2022/05/29 04:33:15;;;;;;;;;;;;;;;21.17;70.16;100451.84;7403948;19;1320;-59
2022/05/29 04:35:47;;;;;;;;;;;;;;;21.25;69.76;100460.00;7401243;19;1250;-60
2022/05/29 04:38:15;;;;;;;;;;;;;;;21.22;70.14;100446.84;7405067;19;1347;-60
2022/05/29 04:40:44;;;;;;;;;;;;;;;21.14;70.65;100417.22;7403306;19;1854;-60
2022/05/29 04:43:14;;;;;;;;;;;;;;;21.05;70.77;100416.34;7403424;19;1393;-60
2022/05/29 04:45:43;;;;;;;;;;;;;;;20.98;70.90;100412.56;7403462;19;1713;-59
2022/05/29 04:48:11;;;;;;;;;;;;;;;20.93;71.06;100394.25;7401776;19;1308;-59
2022/05/29 04:50:40;;;;;;;;;;;;;;;20.93;71.35;100396.94;7402721;19;1437;-59
2022/05/29 04:53:11;;;;;;;;;;;;;;;20.99;71.07;100428.56;7403895;19;1535;-60
2022/05/29 04:55:40;;;;;;;;;;;;;;;21.10;70.51;100442.75;7403304;19;1457;-57
2022/05/29 04:58:09;;;;;;;;;;;;;;;21.07;70.40;100460.03;7403117;19;1335;-58
2022/05/29 05:00:37;;;;;;;;;;;;;;;20.98;70.05;100455.59;7401930;19;1651;-64
2022/05/29 05:03:06;;;;;;;;;;;;;;;21.16;69.68;100464.44;7398474;19;1549;-58
2022/05/29 05:05:37;;;;;;;;;;;;;;;21.41;69.01;100451.19;7399698;19;1330;-59
2022/05/29 05:08:06;;;;;;;;;;;;;;;21.43;69.02;100444.66;7409641;19;1274;-58
2022/05/29 05:10:37;;;;;;;;;;;;;;;21.39;69.20;100437.88;7410383;19;1378;-59
2022/05/29 05:13:06;;;;;;;;;;;;;;;21.38;69.03;100403.91;7410098;19;1569;-59
2022/05/29 05:15:34;;;;;;;;;;;;;;;21.41;68.92;100382.09;7409310;19;1347;-59
2022/05/29 05:18:03;;;;;;;;;;;;;;;21.35;68.74;100385.41;7410812;19;1793;-59
2022/05/29 05:20:33;;;;;;;;;;;;;;;21.25;68.67;100368.56;7409868;19;1386;-60
2022/05/29 05:23:02;;;;;;;;;;;;;;;21.29;68.65;100369.94;7406103;19;1836;-59
2022/05/29 05:25:30;;;;;;;;;;;;;;;21.39;68.68;100381.41;7409079;19;1383;-58
2022/05/29 05:28:01;;;;;;;;;;;;;;;21.43;68.72;100382.81;7409199;19;1490;-58
2022/05/29 05:30:29;;;;;;;;;;;;;;;21.47;68.56;100394.09;7409013;19;1295;-59
2022/05/29 05:32:58;;;;;;;;;;;;;;;21.41;68.26;100403.59;7410394;19;1530;-59
2022/05/29 05:35:26;;;;;;;;;;;;;;;21.40;68.73;100385.75;7408955;19;1521;-58
2022/05/29 05:37:56;;;;;;;;;;;;;;;21.36;68.77;100379.03;7410534;19;1026;-59
2022/05/29 05:40:24;;;;;;;;;;;;;;;21.35;68.92;100404.25;7409145;19;1426;-59
2022/05/29 05:42:53;;;;;;;;;;;;;;;21.34;68.67;100396.34;7407098;19;1850;-59
2022/05/29 05:45:24;;;;;;;;;;;;;;;21.38;68.79;100393.16;7409622;19;1287;-59
2022/05/29 05:47:52;;;;;;;;;;;;;;;21.40;68.63;100398.38;7408606;19;1670;-59
2022/05/29 05:50:20;;;;;;;;;;;;;;;21.38;68.36;100390.47;7409096;19;1560;-58
2022/05/29 05:52:49;;;;;;;;;;;;;;;21.41;68.44;100390.16;7409355;19;1607;-58
2022/05/29 05:55:17;;;;;;;;;;;;;;;21.40;68.55;100384.94;7408346;19;1502;-59
2022/05/29 05:57:45;;;;;;;;;;;;;;;21.42;68.60;100389.13;7408865;19;1531;-59
2022/05/29 06:00:15;;;;;;;;;;;;;;;21.39;68.57;100364.44;7407598;19;1355;-59
2022/05/29 06:02:46;;;;;;;;;;;;;;;21.40;68.26;100379.56;7406920;19;1844;-59
2022/05/29 06:05:15;;;;;;;;;;;;;;;21.40;68.24;100372.31;7407803;19;1622;-59
2022/05/29 06:07:44;;;;;;;;;;;;;;;21.40;68.25;100364.25;7409407;19;1411;-59
2022/05/29 06:10:13;;;;;;;;;;;;;;;21.43;68.38;100353.22;7408041;19;1525;-58
2022/05/29 06:12:42;;;;;;;;;;;;;;;21.42;68.29;100350.63;7408527;19;1528;-59
2022/05/29 06:15:11;;;;;;;;;;;;;;;21.44;67.96;100344.13;7407703;19;1355;-58
2022/05/29 06:17:40;;;;;;;;;;;;;;;21.48;67.74;100336.56;7407778;19;1607;-59
2022/05/29 06:20:12;;;;;;;;;;;;;;;21.51;67.96;100330.03;7407758;19;1678;-59
2022/05/29 06:22:40;;;;;;;;;;;;;;;21.53;67.74;100325.34;7407689;19;1850;-59
2022/05/29 06:25:10;;;;;;;;;;;;;;;21.56;67.84;100335.75;7407894;19;1769;-59
2022/05/29 06:27:39;;;;;;;;;;;;;;;21.63;67.72;100340.34;7407871;19;1539;-59
2022/05/29 06:30:08;;;;;;;;;;;;;;;21.64;67.39;100320.47;7405385;19;1317;-59
2022/05/29 06:32:37;;;;;;;;;;;;;;;21.72;67.25;100325.03;7405412;19;1566;-59
2022/05/29 06:35:05;;;;;;;;;;;;;;;21.69;67.28;100320.00;7406822;19;1343;-59
2022/05/29 06:37:38;;;;;;;;;;;;;;;21.64;67.43;100316.94;7408172;19;1773;-58
2022/05/29 06:40:07;;;;;;;;;;;;;;;21.64;67.34;100330.41;7406583;19;1685;-59
2022/05/29 06:42:36;;;;;;;;;;;;;;;21.61;67.48;100333.44;7405034;19;1855;-59
2022/05/29 06:45:04;;;;;;;;;;;;;;;21.53;67.70;100339.63;7407123;19;1323;-59
2022/05/29 06:47:32;;;;;;;;;;;;;;;21.48;67.92;100316.91;7406211;19;1539;-58
2022/05/29 06:50:01;;;;;;;;;;;;;;;21.43;67.55;100325.47;7407466;19;1618;-59
2022/05/29 06:52:32;;;;;;;;;;;;;;;21.45;67.52;100324.28;7407625;19;1507;-59
2022/05/29 06:55:03;;;;;;;;;;;;;;;21.42;67.46;100305.75;7406722;19;1418;-59
2022/05/29 06:57:44;;;;;;;;;;;;;;;21.44;67.37;100316.38;7404733;19;1238;-58
2022/05/29 07:08:16;;;;;;;;;;;;;;;21.54;66.67;100354.75;7407900;19;1308;-59
2022/05/29 07:10:48;;;;;;;;;;;;;;;21.56;67.03;100363.50;7406161;19;1384;-59
2022/05/29 07:13:16;;;;;;;;;;;;;;;21.53;66.89;100363.00;7404631;19;1672;-59
2022/05/29 07:15:44;;;;;;;;;;;;;;;21.51;66.89;100360.47;7405323;19;1364;-59
2022/05/29 07:18:13;;;;;;;;;;;;;;;21.54;66.60;100370.91;7406847;19;1353;-59
2022/05/29 07:20:41;;;;;;;;;;;;;;;21.55;67.12;100383.34;7405774;19;1266;-59
2022/05/29 07:23:09;;;;;;;;;;;;;;;21.57;67.06;100402.88;7405216;19;1852;-60
2022/05/29 07:25:38;;;;;;;;;;;;;;;21.54;66.93;100399.66;7406100;19;1597;-59
2022/05/29 07:28:09;;;;;;;;;;;;;;;21.45;67.21;100377.25;7405463;19;1551;-59
2022/05/29 07:30:37;;;;;;;;;;;;;;;21.45;67.56;100356.56;7401171;19;1445;-58
2022/05/29 07:33:06;;;;;;;;;;;;;;;21.45;67.28;100344.97;7406409;19;1464;-59
2022/05/29 07:35:34;;;;;;;;;;;;;;;21.45;67.16;100348.50;7405664;19;1579;-59
2022/05/29 07:38:03;;;;;;;;;;;;;;;21.39;67.34;100367.94;7406706;19;1315;-59
2022/05/29 07:40:31;;;;;;;;;;;;;;;21.44;66.81;100354.88;7405588;19;1413;-59
2022/05/29 07:45:44;;;;;;;;;;;;;;;21.48;66.74;100362.63;7407403;19;1544;-59
2022/05/29 07:48:12;;;;;;;;;;;;;;;21.48;66.56;100357.25;7401916;19;1367;-59
2022/05/29 07:50:41;;;;;;;;;;;;;;;21.48;66.30;100352.72;7403258;19;1422;-59
2022/05/29 07:53:09;;;;;;;;;;;;;;;21.50;66.13;100374.09;7401147;19;1313;-59
2022/05/29 07:55:38;;;;;;;;;;;;;;;21.43;65.94;100384.66;7404635;19;1505;-58
2022/05/29 07:58:06;;;;;;;;;;;;;;;21.45;66.12;100386.16;7405041;19;1626;-59
2022/05/29 08:00:35;;;;;;;;;;;;;;;21.45;66.02;100370.03;7401213;19;1499;-59
2022/05/29 08:03:07;;;;;;;;;;;;;;;21.43;65.87;100357.75;7402215;19;1849;-59
2022/05/29 08:05:37;;;;;;;;;;;;;;;21.51;65.90;100352.41;7403956;19;1465;-60
2022/05/29 08:08:08;;;;;;;;;;;;;;;21.56;65.50;100357.28;7405045;19;1044;-60
2022/05/29 08:10:37;;;;;;;;;;;;;;;21.58;65.63;100369.56;7401030;19;1656;-59
2022/05/29 08:13:06;;;;;;;;;;;;;;;21.65;65.17;100370.63;7403014;19;1391;-58
2022/05/29 08:15:36;;;;;;;;;;;;;;;21.62;65.47;100370.94;7404511;19;1563;-59
2022/05/29 08:18:07;;;;;;;;;;;;;;;21.64;65.24;100376.97;7403688;19;1379;-59
2022/05/29 08:20:36;;;;;;;;;;;;;;;21.72;65.47;100370.78;7403867;19;1583;-59
2022/05/29 08:23:05;;;;;;;;;;;;;;;21.76;65.46;100345.25;7403066;19;1839;-58
2022/05/29 08:30:55;;;;;;;;;;;;;;;21.93;64.90;100345.31;7400013;19;1661;-60
2022/05/29 08:33:27;;;;;;;;;;;;;;;21.94;65.21;100352.34;7402913;19;1269;-58
2022/05/29 08:35:57;;;;;;;;;;;;;;;21.87;65.03;100364.81;7401271;19;1914;-59
2022/05/29 08:38:26;;;;;;;;;;;;;;;21.76;65.68;100353.31;7402429;19;1352;-58
2022/05/29 08:40:57;;;;;;;;;;;;;;;21.74;65.11;100386.78;7406956;19;1235;-59
2022/05/29 08:43:28;;;;;;;;;;;;;;;21.64;65.61;100413.81;7410486;19;1852;-59
2022/05/29 08:45:56;;;;;;;;;;;;;;;21.62;65.25;100434.66;7410179;19;1470;-59
2022/05/29 08:48:28;;;;;;;;;;;;;;;21.55;65.36;100450.63;7409427;19;1650;-58
2022/05/29 08:51:11;;;;;;;;;;;;;;;21.54;65.95;100424.72;7409415;19;1446;-58
2022/05/29 08:53:47;;;;;;;;;;;;;;;21.55;65.47;100385.22;7409679;19;1317;-58
2022/05/29 08:56:20;;;;;;;;;;;;;;;21.52;65.56;100378.28;7409398;19;1253;-58
2022/05/29 08:59:01;;;;;;;;;;;;;;;21.53;65.45;100379.16;7411850;19;1197;-58
2022/05/29 09:01:35;;;;;;;;;;;;;;;21.57;64.96;100378.66;7407759;19;1623;-58
2022/05/29 09:04:07;;;;;;;;;;;;;;;21.45;65.15;100370.03;7406595;19;1845;-58
2022/05/29 09:06:38;;;;;;;;;;;;;;;21.52;65.16;100409.75;7409532;19;1433;-59
2022/05/29 09:09:08;;;;;;;;;;;;;;;21.50;65.39;100422.50;7409954;19;1775;-59
2022/05/29 09:11:39;;;;;;;;;;;;;;;21.54;65.38;100450.78;7410138;19;1519;-57
2022/05/29 09:14:14;;;;;;;;;;;;;;;21.48;65.16;100457.63;7410920;19;1473;-59
2022/05/29 09:16:45;;;;;;;;;;;;;;;21.40;65.37;100461.09;7408455;19;1527;-60
2022/05/29 09:19:19;;;;;;;;;;;;;;;21.37;65.22;100460.56;7409028;19;1660;-60
2022/05/29 09:21:52;;;;;;;;;;;;;;;21.15;65.50;100459.22;7407230;19;1195;-60
2022/05/29 09:24:29;;;;;;;;;;;;;;;20.90;66.27;100469.81;7406034;19;1856;-59
2022/05/29 09:26:57;;;;;;;;;;;;;;;20.80;66.39;100448.38;7408698;19;1910;-59
2022/05/29 09:29:26;;;;;;;;;;;;;;;20.78;66.24;100449.56;7402602;19;1349;-60
2022/05/29 09:31:55;;;;;;;;;;;;;;;20.80;66.47;100448.38;7403191;19;1362;-60
2022/05/29 09:34:26;;;;;;;;;;;;;;;20.86;66.21;100439.69;7406898;19;1325;-60
2022/05/29 09:36:59;;;;;;;;;;;;;;;21.00;65.94;100422.16;7407398;19;1344;-58
2022/05/29 09:39:29;;;;;;;;;;;;;;;21.17;65.49;100428.50;7407397;19;1354;-60
2022/05/29 09:42:03;;;;;;;;;;;;;;;21.25;65.36;100403.53;7408206;19;1399;-59
2022/05/29 09:44:31;;;;;;;;;;;;;;;21.30;65.46;100390.41;7404763;19;1851;-60
2022/05/29 09:49:40;;;;;;;;;;;;;;;21.18;65.90;100415.91;7409169;19;1381;-59
2022/05/29 09:50:02;;;;;;;;;;;;;;;21.24;65.52;100404.50;7408396;19;1372;-58
2022/05/29 09:52:32;;;;;;;;;;;;;;;21.26;65.63;100389.06;7407429;19;1299;-59
2022/05/29 09:55:05;;;;;;;;;;;;;;;21.27;65.75;100406.91;7408643;19;1398;-59
2022/05/29 09:57:35;;;;;;;;;;;;;;;21.20;66.05;100403.13;7409341;19;1607;-58
2022/05/29 10:00:06;;;;;;;;;;;;;;;21.17;65.86;100395.38;7409472;19;1590;-59
2022/05/29 10:02:38;;;;;;;;;;;;;;;21.13;65.70;100404.75;7405910;19;1862;-60
2022/05/29 10:05:10;;;;;;;;;;;;;;;21.30;65.63;100411.94;7410316;19;1531;-58
2022/05/29 10:07:41;;;;;;;;;;;;;;;21.26;65.57;100413.25;7409004;19;1717;-60
2022/05/29 10:10:11;;;;;;;;;;;;;;;21.20;65.63;100390.53;7408013;19;1749;-59
2022/05/29 10:12:41;;;;;;;;;;;;;;;21.33;65.43;100406.25;7408323;19;1515;-60
2022/05/29 10:15:15;;;;;;;;;;;;;;;21.27;65.56;100380.00;7407998;19;1335;-59
2022/05/29 10:17:44;;;;;;;;;;;;;;;21.32;65.45;100356.13;7408207;19;1213;-59
2022/05/29 10:20:32;;;;;;;;;;;;;;;21.38;65.28;100393.16;7405814;19;1551;-58
2022/05/29 10:23:02;;;;;;;;;;;;;;;21.35;65.52;100384.59;7407247;19;1842;-60
2022/05/29 10:25:32;;;;;;;;;;;;;;;21.41;65.60;100392.84;7407916;19;1470;-59
2022/05/29 10:28:03;;;;;;;;;;;;;;;21.33;65.74;100371.28;7407869;19;1343;-59
2022/05/29 10:30:34;;;;;;;;;;;;;;;21.39;65.32;100377.88;7407343;19;1539;-60
2022/05/29 10:33:04;;;;;;;;;;;;;;;21.44;65.00;100357.56;7408442;19;1417;-60
2022/05/29 10:35:36;;;;;;;;;;;;;;;21.52;64.81;100367.53;7407823;19;1610;-58
2022/05/29 10:38:22;;;;;;;;;;;;;;;21.54;64.97;100357.44;7407765;19;1630;-59
2022/05/29 10:40:51;;;;;;;;;;;;;;;21.49;64.98;100357.09;7408087;19;1606;-59
2022/05/29 10:43:37;;;;;;;;;;;;;;;21.57;64.77;100346.38;7407600;19;1853;-59
2022/05/29 10:46:13;;;;;;;;;;;;;;;21.57;64.21;100353.59;7405871;19;1633;-58
2022/05/29 10:48:59;;;;;;;;;;;;;;;21.53;64.50;100325.34;7405736;19;1485;-59
2022/05/29 10:51:35;;;;;;;;;;;;;;;21.54;64.65;100327.00;7406851;19;1552;-58
2022/05/29 10:54:16;;;;;;;;;;;;;;;21.60;64.32;100312.91;7406297;19;1635;-60
2022/05/29 10:56:52;;;;;;;;;;;;;;;21.64;64.32;100316.94;7407514;19;1559;-59
2022/05/29 10:59:30;;;;;;;;;;;;;;;21.60;64.01;100310.22;7406366;19;1501;-59
2022/05/29 11:04:59;;;;;;;;;;;;;;;21.59;64.25;100281.63;7405335;19;1850;-59
2022/05/29 11:07:35;;;;;;;;;;;;;;;21.62;64.23;100271.38;7405272;19;1265;-58
2022/05/29 11:10:15;;;;;;;;;;;;;;;21.71;64.42;100292.94;7406619;19;1149;-59
2022/05/29 11:12:51;;;;;;;;;;;;;;;21.69;64.56;100282.34;7406056;19;1516;-58
2022/05/29 11:15:26;;;;;;;;;;;;;;;21.70;64.50;100278.63;7406245;19;1283;-58
2022/05/29 11:18:04;;;;;;;;;;;;;;;21.75;64.29;100284.34;7402648;19;1544;-59
2022/05/29 11:20:47;;;;;;;;;;;;;;;21.74;64.34;100268.38;7405379;19;1419;-58
2022/05/29 11:23:30;;;;;;;;;;;;;;;21.71;64.55;100272.25;7405996;19;1850;-59
2022/05/29 11:26:02;;;;;;;;;;;;;;;21.70;64.49;100257.09;7407149;19;1621;-59
2022/05/29 11:28:51;;;;;;;;;;;;;;;21.75;64.60;100244.00;7406445;19;1615;-59
2022/05/29 11:31:28;;;;;;;;;;;;;;;21.80;64.68;100271.22;7404876;19;1279;-58
2022/05/29 11:34:04;;;;;;;;;;;;;;;21.85;64.53;100241.16;7403663;19;1058;-60
2022/05/29 11:36:36;;;;;;;;;;;;;;;21.88;64.51;100234.56;7405333;19;1328;-59
2022/05/29 11:39:20;;;;;;;;;;;;;;;21.97;64.29;100231.72;7403121;19;1303;-58
2022/05/29 11:41:53;;;;;;;;;;;;;;;21.85;64.72;100233.91;7398962;19;1425;-60
2022/05/29 11:44:26;;;;;;;;;;;;;;;21.83;64.95;100221.63;7393866;19;1838;-58
2022/05/29 11:52:23;;;;;;;;;;;;;;;21.74;65.29;100236.06;7400177;19;1328;-60
2022/05/29 11:54:58;;;;;;;;;;;;;;;21.79;65.33;100212.22;7394097;19;1529;-60
2022/05/29 11:57:30;;;;;;;;;;;;;;;21.88;64.96;100211.19;7397755;19;1350;-58
2022/05/29 12:00:03;;;;;;;;;;;;;;;21.90;65.14;100211.03;7396336;19;1709;-59
2022/05/29 12:02:34;;;;;;;;;;;;;;;21.93;65.17;100198.06;7402830;19;1400;-60
2022/05/29 12:05:11;;;;;;;;;;;;;;;21.98;65.01;100192.16;7398737;19;1849;-60
2022/05/29 12:07:42;;;;;;;;;;;;;;;21.94;65.27;100199.75;7401470;19;1402;-60
2022/05/29 12:10:19;;;;;;;;;;;;;;;21.93;65.49;100208.84;7400622;19;1353;-59
2022/05/29 12:12:52;;;;;;;;;;;;;;;21.97;65.35;100199.41;7401192;19;1355;-59
2022/05/29 12:15:22;;;;;;;;;;;;;;;22.02;65.21;100199.75;7399626;19;1289;-59
2022/05/29 12:17:53;;;;;;;;;;;;;;;21.94;65.13;100198.91;7402724;19;1442;-59
2022/05/29 12:20:23;;;;;;;;;;;;;;;21.84;65.58;100177.53;7399123;19;1342;-59
2022/05/29 12:22:55;;;;;;;;;;;;;;;21.89;65.54;100193.19;7404238;19;1332;-59
2022/05/29 12:25:36;;;;;;;;;;;;;;;21.84;66.06;100199.94;7401706;19;1848;-60
2022/05/29 12:28:07;;;;;;;;;;;;;;;21.73;66.07;100184.09;7402119;19;1316;-59
2022/05/29 12:30:39;;;;;;;;;;;;;;;21.77;66.16;100172.00;7402591;19;1531;-59
2022/05/29 12:33:13;;;;;;;;;;;;;;;21.77;65.85;100166.63;7400741;19;1644;-59
2022/05/29 12:35:44;;;;;;;;;;;;;;;21.82;66.11;100161.53;7402363;19;1295;-60
2022/05/29 12:38:24;;;;;;;;;;;;;;;21.85;65.95;100163.91;7402272;19;1435;-59
2022/05/29 12:41:03;;;;;;;;;;;;;;;21.76;66.06;100154.16;7402000;19;1234;-58
2022/05/29 12:43:46;;;;;;;;;;;;;;;21.75;66.38;100144.41;7404688;19;1844;-58
2022/05/29 12:46:23;;;;;;;;;;;;;;;21.85;66.36;100142.38;7402715;19;1335;-59
2022/05/29 12:49:04;;;;;;;;;;;;;;;21.80;66.31;100117.81;7403596;19;1520;-59
2022/05/29 12:51:53;;;;;;;;;;;;;;;21.77;66.52;100123.56;7404109;19;1634;-58
2022/05/29 12:54:36;;;;;;;;;;;;;;;21.80;66.19;100128.59;7401013;19;1556;-58
2022/05/29 12:57:29;;;;;;;;;;;;;;;21.87;66.08;100111.78;7398255;19;1228;-59
2022/05/29 13:00:12;;;;;;;;;;;;;;;21.88;65.99;100097.28;7402614;19;1234;-59
2022/05/29 13:02:54;;;;;;;;;;;;;;;21.81;66.28;100107.91;7399641;19;2069;-59
2022/05/29 13:05:33;;;;;;;;;;;;;;;21.85;66.28;100110.09;7399869;19;1855;-59
2022/05/29 13:08:12;;;;;;;;;;;;;;;21.82;66.46;100083.50;7402022;19;1511;-60
2022/05/29 13:10:42;;;;;;;;;;;;;;;21.87;66.29;100104.53;7402556;19;1655;-60
2022/05/29 13:13:18;;;;;;;;;;;;;;;21.82;66.12;100096.94;7401874;19;1305;-59
2022/05/29 13:15:47;;;;;;;;;;;;;;;21.82;66.50;100105.03;7399180;19;1257;-59
2022/05/29 13:18:26;;;;;;;;;;;;;;;21.85;66.15;100099.31;7398866;19;1783;-59
2022/05/29 13:21:11;;;;;;;;;;;;;;;21.84;66.26;100086.03;7400400;19;1334;-58
2022/05/29 13:23:41;;;;;;;;;;;;;;;21.78;66.13;100092.91;7398828;19;1849;-59
2022/05/29 13:26:18;;;;;;;;;;;;;;;21.79;66.09;100094.63;7400022;19;1271;-58
2022/05/29 13:29:04;;;;;;;;;;;;;;;21.77;66.48;100085.88;7406635;19;1339;-60
2022/05/29 13:31:37;;;;;;;;;;;;;;;21.83;66.21;100101.34;7408896;19;1411;-59
2022/05/29 13:34:24;;;;;;;;;;;;;;;21.87;66.23;100060.63;7408803;19;1093;-58
2022/05/29 13:37:00;;;;;;;;;;;;;;;21.89;66.29;100077.47;7408601;19;1377;-59
2022/05/29 13:39:37;;;;;;;;;;;;;;;21.87;66.56;100064.16;7409033;19;1458;-58
2022/05/29 13:42:06;;;;;;;;;;;;;;;21.93;66.26;100049.19;7408877;19;1528;-59
2022/05/29 13:44:36;;;;;;;;;;;;;;;21.91;66.55;100070.06;7406205;19;1854;-59